Time;durP1;ratioP1;P1;durP2;ratioP2;P2;SDS_P1;SDS_P2;PMS_P1;PMS_P2;Temp;Humidity;BMP_temperature;BMP_pressure;BME280_temperature;BME280_humidity;BME280_pressure;Samples;Min_cycle;Max_cycle;Signal;HPM_P1;HPM_P2
2022/08/31 00:05:22;;;;;;;1.33;1.00;;;;;;;22.95;39.05;98986.91;4918589;29;20400;-68
2022/08/31 00:07:48;;;;;;;1.02;0.82;;;;;;;22.98;38.82;98999.03;4917857;29;20055;-69
2022/08/31 00:10:17;;;;;;;1.50;1.40;;;;;;;23.00;38.94;98991.50;4918288;29;20052;-69
2022/08/31 00:12:47;;;;;;;1.90;1.80;;;;;;;22.97;38.76;98994.72;4918144;29;20407;-69
2022/08/31 00:15:17;;;;;;;2.22;1.98;;;;;;;22.92;38.78;98997.41;4901135;29;20126;-68
2022/08/31 00:17:45;;;;;;;2.30;2.10;;;;;;;22.85;39.08;99010.31;4917719;29;20079;-69
2022/08/31 00:20:14;;;;;;;2.00;1.90;;;;;;;22.82;39.08;99013.53;4901109;29;20059;-69
2022/08/31 00:23:02;;;;;;;2.28;1.88;;;;;;;22.75;39.33;99001.13;4917944;29;20052;-69
2022/08/31 00:25:29;;;;;;;3.00;2.35;;;;;;;22.68;39.50;99005.97;4900919;29;20048;-69
2022/08/31 00:27:56;;;;;;;1.80;1.70;;;;;;;22.67;39.48;98998.16;4900745;29;20054;-69
2022/08/31 00:30:23;;;;;;;1.40;1.30;;;;;;;22.71;39.86;99001.94;4900779;29;20642;-69
2022/08/31 00:32:50;;;;;;;1.30;1.17;;;;;;;22.74;39.78;99001.41;4918753;29;20044;-69
2022/08/31 00:35:17;;;;;;;1.80;1.40;;;;;;;22.75;39.59;98998.44;4928473;29;20127;-69
2022/08/31 00:37:44;;;;;;;1.52;1.42;;;;;;;22.74;39.54;99002.22;4935256;29;20079;-69
2022/08/31 00:40:11;;;;;;;2.22;1.98;;;;;;;22.74;39.80;98990.63;4919455;29;20051;-69
2022/08/31 00:42:38;;;;;;;3.03;2.25;;;;;;;22.72;39.58;99001.66;4936295;29;20048;-68
2022/08/31 00:45:06;;;;;;;2.63;2.30;;;;;;;22.67;39.57;98993.56;4919430;29;20044;-68
2022/08/31 00:47:32;;;;;;;2.67;2.00;;;;;;;22.63;39.78;98992.50;4936078;29;20048;-68
2022/08/31 00:49:59;;;;;;;2.13;1.85;;;;;;;22.63;39.95;98997.06;4920349;29;20051;-69
2022/08/31 00:52:31;;;;;;;2.35;1.50;;;;;;;22.64;40.14;98993.31;4920702;29;20047;-69
2022/08/31 00:55:17;;;;;;;1.30;1.20;;;;;;;22.63;39.96;98994.38;4921080;29;20083;-68
2022/08/31 00:57:48;;;;;;;1.10;1.00;;;;;;;22.63;40.22;98989.81;4936481;29;20065;-68
2022/08/31 01:00:21;;;;;;;1.30;1.20;;;;;;;22.64;40.15;98987.91;4937967;29;20074;-68
2022/08/31 01:02:48;;;;;;;;;;;;;;;22.62;40.11;98987.38;4929184;29;20468;-69
2022/08/31 01:05:17;;;;;;;1.75;1.65;;;;;;;22.60;40.10;98982.25;4918770;29;19922;-69
2022/08/31 01:07:46;;;;;;;1.58;1.45;;;;;;;22.60;40.30;98992.22;4918759;29;20051;-69
2022/08/31 01:10:15;;;;;;;3.22;2.00;;;;;;;22.60;40.45;98986.81;4919100;29;20051;-69
2022/08/31 01:12:44;;;;;;;3.50;2.20;;;;;;;22.57;40.43;98987.34;4903265;29;20051;-69
2022/08/31 01:15:14;;;;;;;2.85;2.03;;;;;;;22.55;40.70;98984.13;4918630;29;20044;-68
2022/08/31 01:17:42;;;;;;;1.60;1.50;;;;;;;22.53;40.68;98987.06;4918545;29;20040;-68
2022/08/31 01:20:28;;;;;;;1.88;1.73;;;;;;;22.51;40.82;98986.53;4918604;29;20138;-68
2022/08/31 01:23:11;;;;;;;1.50;1.35;;;;;;;22.49;40.95;98989.50;4918639;29;20056;-68
2022/08/31 01:25:42;;;;;;;1.20;1.10;;;;;;;22.50;41.13;98990.31;4934424;29;20095;-69
2022/08/31 01:28:09;;;;;;;0.85;0.85;;;;;;;22.52;41.17;98998.13;4918542;29;20067;-69
2022/08/31 01:30:37;;;;;;;0.80;0.80;;;;;;;22.53;41.26;98995.16;4918539;29;20056;-69
2022/08/31 01:33:04;;;;;;;0.80;0.80;;;;;;;22.56;41.30;98999.22;4911131;29;20049;-68
2022/08/31 01:35:32;;;;;;;0.88;0.88;;;;;;;22.55;41.46;98995.72;4927486;29;20040;-68
2022/08/31 01:38:00;;;;;;;0.70;0.70;;;;;;;22.56;41.76;98991.94;4918594;29;20043;-68
2022/08/31 01:40:43;;;;;;;0.80;0.80;;;;;;;22.56;41.58;99000.00;4918432;29;20043;-68
2022/08/31 01:43:09;;;;;;;0.70;0.70;;;;;;;22.55;41.89;99005.69;4935489;29;20055;-69
2022/08/31 01:45:36;;;;;;;1.10;1.00;;;;;;;22.52;42.02;99009.69;4918212;29;20420;-68
2022/08/31 01:48:03;;;;;;;1.20;1.10;;;;;;;22.48;42.34;99014.00;4918105;29;20051;-68
2022/08/31 01:50:30;;;;;;;1.20;1.10;;;;;;;22.42;42.35;99010.50;4935232;29;20044;-68
2022/08/31 01:52:56;;;;;;;1.27;1.17;;;;;;;22.34;42.66;99023.66;4917836;29;20052;-68
2022/08/31 01:55:23;;;;;;;1.48;1.20;;;;;;;22.29;42.50;99012.84;4918119;29;20079;-68
2022/08/31 01:57:50;;;;;;;1.40;1.15;;;;;;;22.25;42.72;99021.47;4918004;29;20043;-69
2022/08/31 02:00:35;;;;;;;1.63;1.38;;;;;;;22.18;42.67;99023.59;4935588;29;20066;-68
2022/08/31 02:03:06;;;;;;;1.40;1.30;;;;;;;22.15;42.97;99023.31;4911669;29;20558;-69
2022/08/31 02:05:35;;;;;;;1.55;1.45;;;;;;;22.10;42.93;99020.56;4911517;29;20043;-69
2022/08/31 02:08:04;;;;;;;1.75;1.50;;;;;;;22.08;42.91;99028.09;4936191;29;20054;-68
2022/08/31 02:10:31;;;;;;;1.50;1.40;;;;;;;22.04;43.35;99030.50;4918071;29;20132;-69
2022/08/31 02:12:58;;;;;;;2.97;1.70;;;;;;;22.01;43.50;99018.38;4918087;29;20086;-68
2022/08/31 02:15:28;;;;;;;1.70;1.60;;;;;;;22.00;43.87;99032.09;4919178;29;20051;-68
2022/08/31 02:17:55;;;;;;;1.70;1.60;;;;;;;21.97;44.00;99035.31;4918156;29;20039;-69
2022/08/31 02:20:22;;;;;;;1.60;1.50;;;;;;;21.95;44.49;99029.38;4917974;29;20139;-69
2022/08/31 02:22:49;;;;;;;1.27;1.15;;;;;;;21.93;44.47;99026.16;4918160;29;20056;-69
2022/08/31 02:25:16;;;;;;;1.17;1.08;;;;;;;21.91;44.79;99020.19;4917863;29;20039;-68
2022/08/31 02:27:43;;;;;;;1.20;1.10;;;;;;;21.89;44.75;99025.06;4902142;29;20059;-69
2022/08/31 02:30:17;;;;;;;1.50;1.40;;;;;;;21.88;45.14;99028.78;4917973;29;20143;-68
2022/08/31 02:32:44;;;;;;;1.15;1.05;;;;;;;21.85;44.69;99030.13;4910232;29;20044;-68
2022/08/31 02:35:11;;;;;;;1.35;1.25;;;;;;;21.83;45.29;99023.38;4910940;29;20047;-68
2022/08/31 02:37:38;;;;;;;1.60;1.50;;;;;;;21.80;45.65;99026.59;4917992;29;20052;-68
2022/08/31 02:40:07;;;;;;;1.10;1.00;;;;;;;21.77;45.58;99026.06;4936464;29;20122;-68
2022/08/31 02:42:40;;;;;;;1.10;1.00;;;;;;;21.74;45.90;99034.63;4918244;29;20075;-68
2022/08/31 02:45:23;;;;;;;1.30;1.20;;;;;;;21.66;45.56;99029.75;4917680;29;20050;-69
2022/08/31 02:47:51;;;;;;;1.40;1.30;;;;;;;21.63;45.51;99038.31;4917305;29;20047;-69
2022/08/31 02:50:31;;;;;;;1.25;1.15;;;;;;;21.61;45.96;99034.28;4917475;29;20484;-69
2022/08/31 02:52:58;;;;;;;1.30;1.20;;;;;;;21.57;46.04;99033.19;4917635;29;20044;-68
2022/08/31 02:55:26;;;;;;;1.10;1.00;;;;;;;21.54;46.13;99036.38;4934767;29;20075;-68
2022/08/31 02:57:53;;;;;;;0.90;0.90;;;;;;;21.52;46.02;99036.66;4917307;29;20415;-68
2022/08/31 03:00:21;;;;;;;1.13;1.00;;;;;;;21.51;46.16;99041.22;4933341;29;20103;-68
2022/08/31 03:02:49;;;;;;;1.10;1.00;;;;;;;21.52;46.14;99040.16;4910296;29;20048;-69
2022/08/31 03:05:17;;;;;;;1.25;1.15;;;;;;;21.52;46.15;99039.34;4926682;29;20049;-69
2022/08/31 03:07:44;;;;;;;1.42;1.25;;;;;;;21.50;46.25;99038.78;4920844;29;20047;-68
2022/08/31 03:10:13;;;;;;;1.10;1.00;;;;;;;21.45;46.38;99039.56;4921246;29;20103;-68
2022/08/31 03:12:40;;;;;;;1.23;1.13;;;;;;;21.42;46.42;99042.75;4905435;29;20106;-68
2022/08/31 03:15:08;;;;;;;1.00;0.90;;;;;;;21.38;46.30;99046.22;4938117;29;20119;-69
2022/08/31 03:17:35;;;;;;;0.90;0.90;;;;;;;21.38;46.32;99048.91;4920767;29;20044;-69
2022/08/31 03:20:04;;;;;;;0.93;0.90;;;;;;;21.37;46.39;99041.91;4920932;29;20071;-69
2022/08/31 03:22:32;;;;;;;1.15;1.10;;;;;;;21.37;46.00;99047.28;4920939;29;20052;-70
2022/08/31 03:24:59;;;;;;;1.00;1.00;;;;;;;21.34;46.40;99043.22;4920786;29;20393;-68
2022/08/31 03:27:28;;;;;;;1.08;0.95;;;;;;;21.33;46.12;99041.63;4920446;29;20217;-68
2022/08/31 03:29:55;;;;;;;1.30;1.10;;;;;;;21.33;46.48;99040.81;4920735;29;20052;-68
2022/08/31 03:32:26;;;;;;;1.95;1.02;;;;;;;21.34;46.07;99040.53;4915790;29;20048;-68
2022/08/31 03:34:58;;;;;;;0.90;0.90;;;;;;;21.33;46.30;99043.50;4910732;29;20048;-68
2022/08/31 03:37:26;;;;;;;1.20;1.10;;;;;;;21.32;46.07;99042.69;4937479;29;20059;-68
2022/08/31 03:39:57;;;;;;;0.95;0.95;;;;;;;21.34;46.52;99037.03;4905642;29;20058;-68
2022/08/31 03:42:24;;;;;;;1.20;1.10;;;;;;;21.37;46.23;99033.84;4920586;29;20444;-69
2022/08/31 03:44:53;;;;;;;0.80;0.80;;;;;;;21.34;46.52;99028.97;4920710;29;20245;-69
2022/08/31 03:47:25;;;;;;;1.10;1.05;;;;;;;21.29;46.64;99032.41;4906025;29;20456;-67
2022/08/31 03:49:54;;;;;;;1.52;1.30;;;;;;;21.27;46.88;99046.13;4921159;29;20419;-67
2022/08/31 03:52:24;;;;;;;1.55;1.45;;;;;;;21.24;47.08;99043.13;4921720;29;20047;-68
2022/08/31 03:55:08;;;;;;;1.60;1.45;;;;;;;21.25;47.32;99044.75;4921362;29;20052;-68
2022/08/31 03:57:37;;;;;;;2.17;1.63;;;;;;;21.25;47.13;99050.13;4937004;29;20139;-68
2022/08/31 04:03:06;;;;;;;1.30;1.20;;;;;;;21.20;47.97;99053.59;5072858;23;20053;-68
2022/08/31 04:05:51;;;;;;;1.00;0.95;;;;;;;21.21;47.67;99062.44;4899434;29;20058;-69
2022/08/31 04:08:37;;;;;;;0.98;0.98;;;;;;;21.22;48.14;99056.81;4899197;29;20096;-69
2022/08/31 04:11:26;;;;;;;1.20;1.10;;;;;;;21.25;48.39;99063.56;4879161;29;20060;-69
2022/08/31 04:14:42;;;;;;;1.02;1.02;;;;;;;21.24;48.20;99057.38;4895865;29;20136;-69
2022/08/31 04:17:27;;;;;;;1.25;1.15;;;;;;;21.25;48.06;99055.50;4861226;29;20056;-67
2022/08/31 04:20:14;;;;;;;1.23;1.15;;;;;;;21.23;48.27;99065.72;4862518;29;20056;-67
2022/08/31 04:22:44;;;;;;;1.40;1.10;;;;;;;21.20;48.23;99072.41;4860618;29;20140;-67
2022/08/31 04:25:36;;;;;;;1.00;1.00;;;;;;;21.16;48.30;99062.41;4860329;29;20057;-67
2022/08/31 04:28:02;;;;;;;1.00;1.00;;;;;;;21.13;48.32;99069.09;4861456;29;20069;-67
2022/08/31 04:30:29;;;;;;;1.00;0.90;;;;;;;21.14;48.50;99067.22;4861686;29;20045;-67
2022/08/31 04:32:56;;;;;;;1.10;1.00;;;;;;;21.14;48.41;99069.91;4867900;29;20052;-67
2022/08/31 04:35:23;;;;;;;0.80;0.80;;;;;;;21.15;48.27;99068.88;4872905;29;20053;-67
2022/08/31 04:37:50;;;;;;;0.80;0.80;;;;;;;21.14;48.45;99070.72;4863222;29;20049;-67
2022/08/31 04:40:19;;;;;;;1.67;0.90;;;;;;;21.16;48.27;99076.66;4894395;29;20052;-67
2022/08/31 04:42:51;;;;;;;1.73;0.80;;;;;;;21.17;48.25;99080.16;4894652;29;20057;-67
2022/08/31 04:45:21;;;;;;;0.98;0.98;;;;;;;21.15;48.04;99085.81;4894358;29;20053;-67
2022/08/31 04:47:48;;;;;;;1.02;0.80;;;;;;;21.13;47.79;99087.09;4893767;29;20045;-67
2022/08/31 04:50:15;;;;;;;0.95;0.93;;;;;;;21.14;47.79;99089.53;4878536;29;20056;-68
2022/08/31 04:53:14;;;;;;;1.23;1.13;;;;;;;21.10;47.86;99098.34;4876519;29;20132;-68
2022/08/31 04:55:42;;;;;;;1.25;1.15;;;;;;;21.08;48.22;99089.75;4863259;29;20044;-68
2022/08/31 04:58:12;;;;;;;1.17;1.08;;;;;;;21.09;47.94;99086.81;4879553;29;20041;-68
2022/08/31 05:00:41;;;;;;;1.00;0.90;;;;;;;21.10;48.23;99093.78;4879738;29;20490;-68
2022/08/31 05:03:08;;;;;;;0.88;0.88;;;;;;;21.12;48.49;99098.94;4874979;29;20053;-68
2022/08/31 05:05:38;;;;;;;0.80;0.80;;;;;;;21.14;48.66;99096.78;4862748;29;20086;-69
2022/08/31 05:08:05;;;;;;;1.00;0.90;;;;;;;21.12;48.69;99099.75;4893769;29;20056;-69
2022/08/31 05:10:33;;;;;;;1.40;1.30;;;;;;;21.10;48.66;99101.84;4878410;29;20544;-69
2022/08/31 05:12:59;;;;;;;2.08;1.40;;;;;;;21.03;48.92;99096.69;4879321;29;20063;-69
2022/08/31 05:15:26;;;;;;;3.85;2.60;;;;;;;21.02;48.67;99099.63;4893570;29;20065;-69
2022/08/31 05:17:53;;;;;;;2.97;2.60;;;;;;;20.94;48.67;99105.44;4877821;29;20053;-69
2022/08/31 05:20:19;;;;;;;2.63;2.42;;;;;;;20.87;49.15;99111.03;4878106;29;20421;-69
2022/08/31 05:22:46;;;;;;;2.08;1.80;;;;;;;20.90;49.26;99112.41;4878985;29;20440;-69
2022/08/31 05:25:12;;;;;;;1.50;1.40;;;;;;;20.93;48.95;99109.22;4862588;29;20105;-69
2022/08/31 05:27:40;;;;;;;2.10;1.40;;;;;;;20.93;49.07;99114.59;4893002;29;20045;-69
2022/08/31 05:30:08;;;;;;;1.48;1.38;;;;;;;20.92;49.09;99112.97;4893189;29;20057;-69
2022/08/31 05:32:37;;;;;;;1.20;1.10;;;;;;;20.92;49.15;99119.16;4877695;29;20061;-69
2022/08/31 05:35:06;;;;;;;1.30;1.20;;;;;;;20.94;49.20;99125.09;4862626;29;20053;-69
2022/08/31 05:37:33;;;;;;;1.30;1.20;;;;;;;20.98;49.04;99134.28;4862118;29;20079;-69
2022/08/31 05:39:59;;;;;;;1.60;1.42;;;;;;;21.01;49.37;99125.69;4893316;29;20463;-69
2022/08/31 05:42:27;;;;;;;1.80;1.52;;;;;;;21.05;48.88;99123.31;4862544;29;20060;-69
2022/08/31 05:44:54;;;;;;;4.07;2.10;;;;;;;21.06;48.98;99130.31;4893225;29;20063;-69
2022/08/31 05:47:21;;;;;;;2.10;1.90;;;;;;;21.00;48.98;99125.97;4877188;29;20458;-69
2022/08/31 05:49:48;;;;;;;1.75;1.65;;;;;;;20.96;49.33;99135.59;4893574;29;20414;-69
2022/08/31 05:52:18;;;;;;;1.67;1.40;;;;;;;20.99;49.24;99140.47;4877700;29;20139;-69
2022/08/31 05:54:50;;;;;;;2.25;1.45;;;;;;;21.00;48.94;99140.19;4893076;29;20078;-69
2022/08/31 05:57:17;;;;;;;1.05;1.05;;;;;;;21.06;48.62;99145.63;4877480;29;20045;-69
2022/08/31 05:59:44;;;;;;;0.85;0.85;;;;;;;21.12;48.42;99144.63;4877530;29;20424;-70
2022/08/31 06:02:11;;;;;;;1.35;1.20;;;;;;;21.14;48.14;99148.66;4861845;29;20157;-69
2022/08/31 06:04:38;;;;;;;1.73;1.02;;;;;;;21.20;48.51;99152.25;4870008;29;20589;-69
2022/08/31 06:07:04;;;;;;;0.93;0.90;;;;;;;21.23;48.59;99149.06;4878513;29;20045;-69
2022/08/31 06:09:43;;;;;;;2.97;1.10;;;;;;;21.26;48.46;99152.03;4879102;29;20053;-69
2022/08/31 06:12:14;;;;;;;1.95;1.10;;;;;;;21.30;47.98;99156.91;4862669;29;20139;-69
2022/08/31 06:14:40;;;;;;;1.33;1.23;;;;;;;21.34;48.65;99149.97;4877445;29;20053;-69
2022/08/31 06:17:14;;;;;;;1.17;1.10;;;;;;;21.38;48.42;99151.91;4892441;29;20095;-69
2022/08/31 06:19:40;;;;;;;1.50;1.40;;;;;;;21.44;49.28;99150.91;4892951;29;20524;-69
2022/08/31 06:22:07;;;;;;;1.25;1.10;;;;;;;21.49;48.52;99153.63;4862121;29;20052;-70
2022/08/31 06:24:35;;;;;;;1.45;1.35;;;;;;;21.56;48.23;99158.00;4862005;29;20052;-69
2022/08/31 06:27:04;;;;;;;1.10;1.00;;;;;;;21.64;48.18;99154.84;4892575;29;20059;-69
2022/08/31 06:29:33;;;;;;;1.38;1.20;;;;;;;21.74;47.67;99153.03;4877498;29;20052;-70
2022/08/31 06:32:04;;;;;;;2.58;1.25;;;;;;;21.82;47.51;99157.13;4876767;29;20064;-71
2022/08/31 06:34:34;;;;;;;0.85;0.85;;;;;;;21.93;47.20;99156.16;4884957;29;20049;-71
2022/08/31 06:37:05;;;;;;;1.30;1.20;;;;;;;22.01;47.06;99152.16;4878420;29;20052;-69
2022/08/31 06:39:42;;;;;;;1.50;1.40;;;;;;;22.09;46.43;99162.44;4877813;29;20529;-69
2022/08/31 06:42:33;;;;;;;1.95;1.65;;;;;;;22.14;46.57;99159.81;4882314;29;20593;-69
2022/08/31 06:45:26;;;;;;;1.85;1.73;;;;;;;22.21;45.82;99152.31;4882566;29;20056;-69
2022/08/31 06:48:00;;;;;;;1.67;1.58;;;;;;;22.22;45.71;99158.53;4897273;29;20053;-68
2022/08/31 06:50:27;;;;;;;1.98;1.85;;;;;;;22.25;45.78;99155.31;4881802;29;20061;-68
2022/08/31 06:52:54;;;;;;;2.30;1.88;;;;;;;22.23;45.32;99166.31;4882310;29;20056;-69
2022/08/31 06:55:23;;;;;;;1.60;1.50;;;;;;;22.27;45.40;99171.19;4867033;29;20049;-69
2022/08/31 06:58:08;;;;;;;2.50;1.85;;;;;;;22.33;45.51;99167.44;4882668;29;20524;-69
2022/08/31 07:00:56;;;;;;;2.20;2.10;;;;;;;22.32;45.04;99166.66;4882580;29;20055;-69
2022/08/31 07:03:37;;;;;;;2.83;2.30;;;;;;;22.24;45.33;99177.91;4863189;29;20053;-68
2022/08/31 07:06:08;;;;;;;5.60;2.95;;;;;;;22.23;45.55;99174.41;4881834;29;20151;-69
2022/08/31 07:08:38;;;;;;;2.70;2.17;;;;;;;22.27;45.42;99174.69;4866732;29;20051;-68
2022/08/31 07:11:19;;;;;;;2.55;2.13;;;;;;;22.29;45.53;99172.56;4866686;29;20080;-69
2022/08/31 07:13:47;;;;;;;2.55;2.00;;;;;;;22.33;45.43;99165.59;4881967;29;20056;-69
2022/08/31 07:16:17;;;;;;;3.13;2.60;;;;;;;22.41;45.26;99170.50;4897548;29;20068;-69
2022/08/31 07:18:43;;;;;;;2.50;2.20;;;;;;;22.47;45.17;99161.34;4881813;29;20041;-69
2022/08/31 07:21:16;;;;;;;3.08;2.55;;;;;;;22.56;45.36;99155.47;4866375;29;20091;-69
2022/08/31 07:23:44;;;;;;;3.45;2.20;;;;;;;22.70;45.19;99159.31;4881693;29;20064;-68
2022/08/31 07:26:41;;;;;;;2.65;2.00;;;;;;;22.85;45.20;99164.75;4866441;29;20045;-69
2022/08/31 07:29:09;;;;;;;2.85;2.35;;;;;;;22.96;44.78;99158.34;4866454;29;20073;-69
2022/08/31 07:31:46;;;;;;;3.33;2.63;;;;;;;22.97;44.66;99161.84;4899277;29;20045;-69
2022/08/31 07:34:18;;;;;;;3.83;2.80;;;;;;;23.03;44.36;99168.09;4893575;29;20462;-69
2022/08/31 07:42:54;;;;;;;3.10;2.80;;;;;;;23.34;43.78;99168.97;4886958;29;20041;-69
2022/08/31 07:45:23;;;;;;;4.47;3.03;;;;;;;23.39;43.69;99167.09;4870075;29;20471;-69
2022/08/31 07:47:58;;;;;;;3.45;2.50;;;;;;;23.39;43.45;99174.34;4885055;29;20056;-68
2022/08/31 07:50:30;;;;;;;3.33;2.73;;;;;;;23.45;43.36;99174.09;4876999;29;20053;-69
2022/08/31 07:53:19;;;;;;;3.03;2.72;;;;;;;23.63;43.38;99180.06;4892594;29;20101;-69
2022/08/31 07:56:22;;;;;;;3.95;2.42;;;;;;;23.62;42.85;99181.94;4890175;29;20064;-69
2022/08/31 07:58:56;;;;;;;3.83;3.20;;;;;;;23.66;42.93;99185.75;4891807;29;20059;-68
2022/08/31 08:01:23;;;;;;;2.85;2.65;;;;;;;23.72;42.91;99187.41;4890576;29;20053;-68
2022/08/31 08:03:52;;;;;;;3.15;2.85;;;;;;;23.81;42.65;99192.25;4879436;29;20046;-68
2022/08/31 08:06:42;;;;;;;3.30;3.00;;;;;;;23.95;42.54;99194.13;4897022;29;20061;-68
2022/08/31 08:09:46;;;;;;;3.20;2.90;;;;;;;23.98;42.60;99190.88;4886555;29;20056;-69
2022/08/31 08:12:35;;;;;;;2.78;2.40;;;;;;;23.94;42.74;99189.81;4900227;29;20085;-69
2022/08/31 08:15:14;;;;;;;3.30;2.60;;;;;;;23.83;42.52;99192.78;4900618;29;20113;-70
2022/08/31 08:17:59;;;;;;;2.72;2.53;;;;;;;23.91;42.81;99198.44;4884461;29;20053;-66
2022/08/31 08:20:35;;;;;;;2.50;2.30;;;;;;;23.95;42.72;99199.53;4869752;29;20045;-67
2022/08/31 08:23:10;;;;;;;3.28;2.60;;;;;;;23.99;42.56;99202.50;4869117;29;20048;-67
2022/08/31 08:26:07;;;;;;;5.57;2.70;;;;;;;23.94;42.60;99202.50;4883212;29;20225;-66
2022/08/31 08:29:06;;;;;;;3.95;2.67;;;;;;;23.81;42.80;99211.16;4898067;29;20061;-67
2022/08/31 08:31:37;;;;;;;2.30;2.10;;;;;;;23.87;43.20;99220.84;4881669;29;20057;-67
2022/08/31 08:34:05;;;;;;;3.72;2.55;;;;;;;23.85;42.72;99213.03;4880117;29;20069;-67
2022/08/31 08:36:35;;;;;;;3.42;2.60;;;;;;;23.89;42.87;99214.13;4879860;29;20067;-67
2022/08/31 08:39:07;;;;;;;4.72;2.63;;;;;;;23.93;43.16;99209.00;4864679;29;20045;-66
2022/08/31 08:41:39;;;;;;;3.90;2.67;;;;;;;23.90;42.99;99204.13;4879752;29;20061;-66
2022/08/31 08:44:11;;;;;;;3.25;2.80;;;;;;;23.89;43.12;99203.31;4879921;29;20532;-67
2022/08/31 08:46:48;;;;;;;3.05;2.30;;;;;;;24.03;43.19;99205.47;4879396;29;20135;-67
2022/08/31 08:49:54;;;;;;;2.85;2.65;;;;;;;24.10;43.03;99209.53;4879534;29;20086;-67
2022/08/31 08:52:34;;;;;;;4.75;2.90;;;;;;;24.08;43.00;99213.56;4863687;29;20053;-67
2022/08/31 08:55:07;;;;;;;3.35;2.25;;;;;;;24.14;43.29;99205.19;4878970;29;20095;-67
2022/08/31 08:57:37;;;;;;;3.83;2.90;;;;;;;24.18;43.26;99214.38;4878237;29;20139;-67
2022/08/31 09:00:14;;;;;;;3.28;2.97;;;;;;;24.17;44.01;99218.16;4878617;29;20053;-67
2022/08/31 09:03:11;;;;;;;3.22;2.92;;;;;;;24.05;43.96;99222.22;4877730;29;20053;-66
2022/08/31 09:06:08;;;;;;;3.90;2.97;;;;;;;23.96;44.28;99224.63;4877231;29;20063;-67
2022/08/31 09:09:17;;;;;;;4.22;2.60;;;;;;;23.96;45.06;99233.56;4863179;29;20152;-66
2022/08/31 09:12:32;;;;;;;4.35;2.97;;;;;;;23.93;44.84;99227.91;4878213;29;20049;-67
2022/08/31 09:15:02;;;;;;;3.03;2.70;;;;;;;23.90;44.76;99231.94;4830007;29;20082;-67
2022/08/31 09:17:46;;;;;;;4.63;3.20;;;;;;;23.88;44.93;99234.09;4893350;29;20053;-67
2022/08/31 09:20:15;;;;;;;5.60;3.47;;;;;;;23.82;45.18;99237.06;4862948;29;20072;-67
2022/08/31 09:22:48;;;;;;;3.72;3.25;;;;;;;23.72;45.15;99240.56;4878024;29;20057;-67
2022/08/31 09:25:27;;;;;;;3.65;2.97;;;;;;;23.62;45.28;99230.53;4863009;29;20152;-67
2022/08/31 09:28:02;;;;;;;4.30;3.55;;;;;;;23.60;45.37;99234.59;4878248;29;20056;-67
2022/08/31 09:30:53;;;;;;;4.38;3.30;;;;;;;23.58;45.57;99236.72;4862584;29;20049;-67
2022/08/31 09:33:28;;;;;;;6.70;3.33;;;;;;;23.49;45.24;99233.75;4872585;29;20120;-67
2022/08/31 09:36:13;;;;;;;3.58;3.25;;;;;;;23.38;46.07;99237.47;4876200;29;20045;-67
2022/08/31 09:38:42;;;;;;;4.50;3.28;;;;;;;23.35;45.77;99232.59;4893441;29;20144;-67
2022/08/31 09:41:28;;;;;;;3.60;3.00;;;;;;;23.39;45.95;99225.59;4878840;29;20097;-67
2022/08/31 09:44:20;;;;;;;4.95;3.28;;;;;;;23.48;45.81;99229.44;4878785;29;20143;-67
2022/08/31 09:46:50;;;;;;;3.20;2.80;;;;;;;23.53;45.70;99229.44;4878485;29;20462;-68
2022/08/31 09:49:24;;;;;;;3.60;3.28;;;;;;;23.66;45.59;99223.53;4878667;29;20497;-67
2022/08/31 09:51:51;;;;;;;5.85;3.22;;;;;;;23.76;45.43;99224.63;4877642;29;20509;-67
2022/08/31 09:57:12;;;;;;;2.80;2.50;;;;;;;24.09;45.20;99226.00;4892851;29;20076;-67
2022/08/31 09:59:48;;;;;;;2.67;2.47;;;;;;;24.27;44.68;99225.44;4877582;29;20072;-67
2022/08/31 10:02:21;;;;;;;3.67;2.72;;;;;;;24.36;44.32;99223.00;4878472;29;20049;-67
2022/08/31 10:04:50;;;;;;;3.72;2.72;;;;;;;24.22;44.14;99223.56;4869904;29;20476;-67
2022/08/31 10:07:23;;;;;;;2.50;2.22;;;;;;;24.19;44.26;99228.69;4877532;29;20052;-67
2022/08/31 10:09:57;;;;;;;3.35;2.75;;;;;;;24.06;44.33;99226.53;4877305;29;20469;-67
2022/08/31 10:12:42;;;;;;;3.28;2.63;;;;;;;24.10;44.45;99223.03;4878587;29;20457;-67
2022/08/31 10:15:38;;;;;;;2.85;2.42;;;;;;;24.15;44.48;99230.31;4877899;29;20079;-68
2022/08/31 10:18:12;;;;;;;2.95;2.13;;;;;;;24.19;43.87;99224.09;4896689;23;20100;-68
2022/08/31 10:20:48;;;;;;;2.63;2.25;;;;;;;24.20;43.54;99224.91;4865410;29;20053;-68
2022/08/31 10:23:34;;;;;;;2.38;2.17;;;;;;;24.01;43.44;99224.66;4860543;29;20401;-69
2022/08/31 10:26:30;;;;;;;2.83;2.38;;;;;;;24.00;43.52;99223.00;4860860;29;20520;-69
2022/08/31 10:29:00;;;;;;;1.88;1.67;;;;;;;24.13;43.90;99218.97;4874747;29;20054;-69
2022/08/31 10:31:35;;;;;;;2.10;1.90;;;;;;;24.31;43.63;99218.41;4859742;29;20053;-68
2022/08/31 10:37:08;;;;;;;1.90;1.80;;;;;;;24.66;43.13;99219.47;4897782;29;20053;-68
2022/08/31 10:39:46;;;;;;;2.30;1.85;;;;;;;24.64;42.62;99227.81;4897627;29;20068;-68
2022/08/31 10:42:23;;;;;;;1.88;1.77;;;;;;;24.56;42.77;99220.28;4897149;29;20048;-67
2022/08/31 10:44:57;;;;;;;2.50;2.20;;;;;;;24.59;42.92;99217.03;4895928;29;20498;-68
2022/08/31 10:47:27;;;;;;;2.00;1.90;;;;;;;24.76;43.48;99215.91;4896640;29;20405;-68
2022/08/31 10:50:04;;;;;;;2.08;1.88;;;;;;;24.93;42.74;99213.66;4897086;29;20552;-68
2022/08/31 10:52:41;;;;;;;2.10;1.98;;;;;;;24.99;42.50;99222.59;4897016;29;20404;-67
2022/08/31 10:55:22;;;;;;;1.98;1.80;;;;;;;24.95;42.33;99217.72;4880184;29;20069;-68
2022/08/31 10:58:03;;;;;;;1.70;1.60;;;;;;;25.01;42.13;99215.81;4879864;29;20056;-68
2022/08/31 11:00:58;;;;;;;1.45;1.35;;;;;;;25.19;42.22;99209.00;4895783;29;20049;-68
2022/08/31 11:03:47;;;;;;;1.75;1.42;;;;;;;25.45;41.31;99210.47;4863517;29;20512;-70
2022/08/31 11:06:18;;;;;;;1.02;1.02;;;;;;;25.51;40.32;99218.53;4858906;29;20060;-70
2022/08/31 11:08:56;;;;;;;0.85;0.85;;;;;;;25.49;39.93;99234.25;4859122;29;20051;-69
2022/08/31 11:11:35;;;;;;;1.10;1.00;;;;;;;25.30;39.85;99225.97;4858060;29;20479;-69
2022/08/31 11:15:11;;;;;;;1.33;1.23;;;;;;;25.19;39.64;99225.22;4859346;29;20084;-69
2022/08/31 11:18:04;;;;;;;1.20;1.20;;;;;;;24.91;40.13;99232.06;4840558;29;20057;-70
2022/08/31 11:20:58;;;;;;;1.65;1.13;;;;;;;24.73;39.97;99235.38;4859422;29;20070;-69
2022/08/31 11:23:43;;;;;;;0.90;0.90;;;;;;;24.65;40.72;99231.34;4859036;29;20052;-69
2022/08/31 11:26:32;;;;;;;2.15;1.30;;;;;;;24.74;40.55;99226.16;4859005;29;20110;-70
2022/08/31 11:29:08;;;;;;;1.20;1.10;;;;;;;24.63;40.65;99223.50;4861309;29;20049;-69
2022/08/31 11:31:37;;;;;;;1.13;1.02;;;;;;;24.57;40.86;99226.50;4861528;29;20746;-72
2022/08/31 11:34:24;;;;;;;1.80;1.00;;;;;;;24.48;41.18;99226.25;4889812;29;20071;-69
2022/08/31 11:36:53;;;;;;;0.95;0.95;;;;;;;24.42;41.25;99225.44;4899732;29;20425;-69
2022/08/31 11:39:43;;;;;;;0.80;0.80;;;;;;;24.32;41.62;99219.22;4899575;29;20127;-70
2022/08/31 11:42:38;;;;;;;1.00;1.00;;;;;;;24.39;41.09;99225.19;4899683;29;20044;-69
2022/08/31 11:45:07;;;;;;;1.30;1.00;;;;;;;24.38;41.10;99226.28;4899577;29;20079;-69
2022/08/31 11:47:42;;;;;;;0.90;0.90;;;;;;;24.42;41.17;99230.06;4899006;29;20064;-69
2022/08/31 11:50:30;;;;;;;0.80;0.80;;;;;;;24.59;41.31;99227.84;4899405;29;20049;-69
2022/08/31 11:53:00;;;;;;;1.10;1.00;;;;;;;24.70;40.82;99234.03;4879502;29;20151;-67
2022/08/31 11:55:46;;;;;;;1.08;0.98;;;;;;;24.62;40.85;99219.19;4899621;29;20125;-68
2022/08/31 11:58:22;;;;;;;1.13;0.88;;;;;;;24.64;40.98;99222.41;4899007;29;20060;-68
2022/08/31 12:01:29;;;;;;;0.80;0.80;;;;;;;24.57;41.02;99221.88;4898062;29;20056;-68
2022/08/31 12:04:03;;;;;;;0.80;0.80;;;;;;;24.58;41.19;99220.03;4889877;29;20051;-70
2022/08/31 12:06:36;;;;;;;0.98;0.98;;;;;;;24.55;41.30;99220.56;4897932;29;20053;-70
2022/08/31 12:09:36;;;;;;;0.90;0.90;;;;;;;24.68;41.55;99215.38;4898165;29;20419;-69
2022/08/31 12:12:22;;;;;;;1.20;1.10;;;;;;;24.84;41.09;99216.13;4899566;29;20048;-70
2022/08/31 12:14:57;;;;;;;1.30;1.02;;;;;;;24.98;40.95;99219.06;4899352;29;20055;-70
2022/08/31 12:17:45;;;;;;;1.13;1.05;;;;;;;25.10;40.74;99218.75;4898757;29;20048;-68
2022/08/31 12:20:30;;;;;;;0.90;0.90;;;;;;;25.32;40.89;99219.19;4897884;29;20506;-69
2022/08/31 12:23:38;;;;;;;1.30;1.20;;;;;;;25.45;40.49;99213.16;4913426;29;20119;-71
2022/08/31 12:26:42;;;;;;;1.63;1.30;;;;;;;25.60;40.13;99211.47;4898437;29;20045;-68
2022/08/31 12:29:28;;;;;;;1.38;1.27;;;;;;;25.78;40.00;99212.72;4898560;29;20044;-69